Time;durP1;ratioP1;P1;durP2;ratioP2;P2;SDS_P1;SDS_P2;PMS_P1;PMS_P2;Temp;Humidity;BMP_temperature;BMP_pressure;BME280_temperature;BME280_humidity;BME280_pressure;Samples;Min_cycle;Max_cycle;Signal;HPM_P1;HPM_P2
2022/05/21 00:00:31;;;;;;;4.75;2.38;;;;;;;;;;7387715;19;20070;-76
2022/05/21 00:02:57;;;;;;;5.32;2.45;;;;;;;;;;7391715;19;20473;-76
2022/05/21 00:05:24;;;;;;;5.15;2.40;;;;;;;;;;7389406;19;20011;-76
2022/05/21 00:07:50;;;;;;;5.07;2.42;;;;;;;;;;7386691;19;20031;-76
2022/05/21 00:10:16;;;;;;;4.15;2.50;;;;;;;;;;7389896;19;20003;-77
2022/05/21 00:12:43;;;;;;;5.28;2.17;;;;;;;;;;7388155;19;20070;-76
2022/05/21 00:15:10;;;;;;;7.82;2.15;;;;;;;;;;7388658;19;20007;-76
2022/05/21 00:17:36;;;;;;;4.35;2.55;;;;;;;;;;7389150;19;20028;-75
2022/05/21 00:20:01;;;;;;;7.47;2.78;;;;;;;;;;7386841;19;20010;-75
2022/05/21 00:22:27;;;;;;;3.60;2.13;;;;;;;;;;7386713;19;20011;-76
2022/05/21 00:24:53;;;;;;;3.00;2.47;;;;;;;;;;7387965;19;20014;-76
2022/05/21 00:27:18;;;;;;;5.40;2.17;;;;;;;;;;7383540;19;20379;-76
2022/05/21 00:29:44;;;;;;;7.55;2.15;;;;;;;;;;7387125;19;20006;-76
2022/05/21 00:32:09;;;;;;;3.53;2.20;;;;;;;;;;7385392;19;20027;-76
2022/05/21 00:34:34;;;;;;;5.53;2.10;;;;;;;;;;7385652;19;20505;-76
2022/05/21 00:37:01;;;;;;;4.75;2.55;;;;;;;;;;7387601;19;20014;-76
2022/05/21 00:39:27;;;;;;;6.00;2.35;;;;;;;;;;7383535;19;20014;-76
2022/05/21 00:41:52;;;;;;;4.72;2.83;;;;;;;;;;7382606;19;20010;-76
2022/05/21 00:44:17;;;;;;;3.28;2.47;;;;;;;;;;7388939;19;20002;-76
2022/05/21 00:46:44;;;;;;;3.70;2.28;;;;;;;;;;7384749;19;20086;-76
2022/05/21 00:49:22;;;;;;;5.20;2.78;;;;;;;;;;7386652;19;20009;-74
2022/05/21 00:52:10;;;;;;;4.00;2.38;;;;;;;;;;7383739;19;20577;-76
2022/05/21 00:54:45;;;;;;;4.85;2.20;;;;;;;;;;7386813;19;20113;-76
2022/05/21 00:57:16;;;;;;;4.57;2.53;;;;;;;;;;7385183;19;20015;-77
2022/05/21 00:59:49;;;;;;;7.18;2.75;;;;;;;;;;7388519;19;20106;-77
2022/05/21 01:02:18;;;;;;;6.13;2.38;;;;;;;;;;7383081;19;20689;-77
2022/05/21 01:04:44;;;;;;;2.88;2.50;;;;;;;;;;7390031;19;20015;-76
2022/05/21 01:07:10;;;;;;;6.88;2.53;;;;;;;;;;7387444;19;20034;-76
2022/05/21 01:09:40;;;;;;;4.35;2.33;;;;;;;;;;7386548;19;20509;-75
2022/05/21 01:12:06;;;;;;;6.63;2.40;;;;;;;;;;7387443;19;20018;-77
2022/05/21 01:14:32;;;;;;;4.13;2.40;;;;;;;;;;7391244;19;20339;-77
2022/05/21 01:17:00;;;;;;;5.47;2.47;;;;;;;;;;7392495;19;19998;-76
2022/05/21 01:19:25;;;;;;;4.70;2.40;;;;;;;;;;7388639;19;20078;-76
2022/05/21 01:21:51;;;;;;;4.47;2.13;;;;;;;;;;7393507;19;20142;-77
2022/05/21 01:24:16;;;;;;;5.53;2.10;;;;;;;;;;7390393;19;20007;-77
2022/05/21 01:26:42;;;;;;;3.30;1.90;;;;;;;;;;7394123;19;20010;-76
2022/05/21 01:29:12;;;;;;;4.70;2.40;;;;;;;;;;7393198;19;20010;-76
2022/05/21 01:31:39;;;;;;;5.78;2.80;;;;;;;;;;7389803;19;20018;-76
2022/05/21 01:34:04;;;;;;;2.70;2.10;;;;;;;;;;7389185;19;20010;-76
2022/05/21 01:36:30;;;;;;;4.95;2.67;;;;;;;;;;7389066;19;20505;-76
2022/05/21 01:38:56;;;;;;;3.72;2.13;;;;;;;;;;7392136;19;20038;-76
2022/05/21 01:41:21;;;;;;;7.03;2.15;;;;;;;;;;7390452;19;20450;-76
2022/05/21 01:46:30;;;;;;;3.58;2.13;;;;;;;;;;7394727;19;20013;-76
2022/05/21 01:48:56;;;;;;;3.95;2.20;;;;;;;;;;7391631;19;20002;-77
2022/05/21 01:51:21;;;;;;;4.00;1.92;;;;;;;;;;7389198;19;20011;-75
2022/05/21 01:53:47;;;;;;;3.00;1.67;;;;;;;;;;7391761;19;20018;-75
2022/05/21 01:56:13;;;;;;;4.95;2.45;;;;;;;;;;7393239;19;20006;-77
2022/05/21 01:58:39;;;;;;;3.30;2.17;;;;;;;;;;7394653;19;20039;-77
2022/05/21 02:01:06;;;;;;;3.70;1.95;;;;;;;;;;7390884;19;20007;-77
2022/05/21 02:03:31;;;;;;;5.13;2.17;;;;;;;;;;7393582;19;20021;-76
2022/05/21 02:05:57;;;;;;;4.05;1.92;;;;;;;;;;7394878;19;20006;-77
2022/05/21 02:08:22;;;;;;;5.00;2.25;;;;;;;;;;7392045;19;20007;-77
2022/05/21 02:10:48;;;;;;;4.35;2.30;;;;;;;;;;7391978;19;20017;-77
2022/05/21 02:13:16;;;;;;;2.88;2.17;;;;;;;;;;7393195;19;20086;-76
2022/05/21 02:15:42;;;;;;;5.60;1.85;;;;;;;;;;7389869;19;20070;-76
2022/05/21 02:18:07;;;;;;;3.38;2.40;;;;;;;;;;7393226;19;20015;-77
2022/05/21 02:20:33;;;;;;;2.47;2.08;;;;;;;;;;7391044;19;20362;-76
2022/05/21 02:22:58;;;;;;;3.75;2.17;;;;;;;;;;7393445;19;20018;-77
2022/05/21 02:25:23;;;;;;;3.33;2.10;;;;;;;;;;7393121;19;20797;-78
2022/05/21 02:27:49;;;;;;;2.88;1.92;;;;;;;;;;7388813;19;20015;-78
2022/05/21 02:30:14;;;;;;;4.70;2.25;;;;;;;;;;7393966;19;20123;-78
2022/05/21 02:32:39;;;;;;;4.53;2.20;;;;;;;;;;7388263;19;20782;-77
2022/05/21 02:35:05;;;;;;;4.30;2.30;;;;;;;;;;7391816;19;20010;-76
2022/05/21 02:40:14;;;;;;;3.92;2.22;;;;;;;;;;7393875;19;20034;-77
2022/05/21 02:42:48;;;;;;;3.33;2.20;;;;;;;;;;7391571;19;20086;-78
2022/05/21 02:45:24;;;;;;;3.15;2.10;;;;;;;;;;7390212;19;20010;-77
2022/05/21 02:47:50;;;;;;;;;;;;;;;;;;7392260;19;20010;-77
2022/05/21 02:50:18;;;;;;;2.30;2.00;;;;;;;;;;7393502;19;20239;-77
2022/05/21 02:52:44;;;;;;;4.55;2.40;;;;;;;;;;7391076;19;20127;-77
2022/05/21 02:55:11;;;;;;;3.40;2.20;;;;;;;;;;7388818;19;20011;-76
2022/05/21 02:57:36;;;;;;;2.85;1.58;;;;;;;;;;7391629;19;20078;-76
2022/05/21 03:00:06;;;;;;;4.40;1.95;;;;;;;;;;7390072;19;20014;-77
2022/05/21 03:02:32;;;;;;;2.92;1.90;;;;;;;;;;7384817;19;20006;-77
2022/05/21 03:04:57;;;;;;;7.00;2.40;;;;;;;;;;7390933;19;20009;-77
2022/05/21 03:07:22;;;;;;;3.22;2.20;;;;;;;;;;7390451;19;20137;-76
2022/05/21 03:12:31;;;;;;;3.65;2.15;;;;;;;;;;7388582;19;20026;-77
2022/05/21 03:14:57;;;;;;;4.80;2.28;;;;;;;;;;7384854;19;20321;-76
2022/05/21 03:17:26;;;;;;;3.60;2.08;;;;;;;;;;7388830;19;20010;-77
2022/05/21 03:19:51;;;;;;;4.63;1.67;;;;;;;;;;7389815;19;20037;-77
2022/05/21 03:22:17;;;;;;;3.17;2.17;;;;;;;;;;7390048;19;20790;-76
2022/05/21 03:24:43;;;;;;;3.28;1.80;;;;;;;;;;7393254;19;20569;-77
2022/05/21 03:27:09;;;;;;;3.90;1.92;;;;;;;;;;7391847;19;20665;-77
2022/05/21 03:29:34;;;;;;;3.92;2.00;;;;;;;;;;7393593;19;20825;-77
2022/05/21 03:32:00;;;;;;;2.95;1.92;;;;;;;;;;7391692;19;20066;-76
2022/05/21 03:34:25;;;;;;;2.50;1.88;;;;;;;;;;7389173;19;20023;-77
2022/05/21 03:36:50;;;;;;;3.33;1.92;;;;;;;;;;7391044;19;20003;-76
2022/05/21 03:39:15;;;;;;;2.65;1.77;;;;;;;;;;7392475;19;20042;-76
2022/05/21 03:41:41;;;;;;;2.95;2.15;;;;;;;;;;7391430;19;20077;-77
2022/05/21 03:44:06;;;;;;;4.50;2.60;;;;;;;;;;7391320;19;20043;-77
2022/05/21 03:46:32;;;;;;;3.42;1.75;;;;;;;;;;7392537;19;20018;-77
2022/05/21 03:48:58;;;;;;;3.03;2.00;;;;;;;;;;7393518;19;20409;-77
2022/05/21 03:51:23;;;;;;;2.78;1.92;;;;;;;;;;7390590;19;20015;-77
2022/05/21 03:53:48;;;;;;;4.57;1.92;;;;;;;;;;7393185;19;20007;-77
2022/05/21 03:56:13;;;;;;;2.35;1.60;;;;;;;;;;7393283;19;20049;-78
2022/05/21 03:58:39;;;;;;;2.40;1.77;;;;;;;;;;7398201;19;20057;-77
2022/05/21 04:01:04;;;;;;;4.03;1.75;;;;;;;;;;7389182;19;20487;-77
2022/05/21 04:03:30;;;;;;;3.38;1.88;;;;;;;;;;7391321;19;20015;-75
2022/05/21 04:05:57;;;;;;;5.80;2.05;;;;;;;;;;7387156;19;20030;-75
2022/05/21 04:08:23;;;;;;;1.95;1.70;;;;;;;;;;7385821;19;20006;-76
2022/05/21 04:10:49;;;;;;;2.15;1.60;;;;;;;;;;7385181;19;20122;-76
2022/05/21 04:13:15;;;;;;;2.83;1.77;;;;;;;;;;7389859;19;20121;-75
2022/05/21 04:15:41;;;;;;;2.55;1.70;;;;;;;;;;7385086;19;20022;-76
2022/05/21 04:18:06;;;;;;;5.22;1.80;;;;;;;;;;7389021;19;20046;-75
2022/05/21 04:20:32;;;;;;;2.65;1.60;;;;;;;;;;7386571;19;20010;-75
2022/05/21 04:22:58;;;;;;;1.77;1.55;;;;;;;;;;7388768;19;20437;-79
2022/05/21 04:25:24;;;;;;;2.22;2.00;;;;;;;;;;7387754;19;20002;-78
2022/05/21 04:27:49;;;;;;;6.00;1.88;;;;;;;;;;7391940;19;20101;-79
2022/05/21 04:30:22;;;;;;;2.08;1.55;;;;;;;;;;7384237;19;20053;-77
2022/05/21 04:32:47;;;;;;;3.13;1.80;;;;;;;;;;7388366;19;20014;-78
2022/05/21 04:35:14;;;;;;;2.42;1.60;;;;;;;;;;7397816;19;20006;-79
2022/05/21 04:37:40;;;;;;;3.67;1.65;;;;;;;;;;7395356;19;20486;-77
2022/05/21 04:40:08;;;;;;;2.28;1.50;;;;;;;;;;7389335;19;20023;-77
2022/05/21 04:42:34;;;;;;;7.28;1.92;;;;;;;;;;7384410;19;20109;-76
2022/05/21 04:44:59;;;;;;;3.45;1.60;;;;;;;;;;7385084;19;20003;-77
2022/05/21 04:47:25;;;;;;;2.42;1.40;;;;;;;;;;7391184;19;20077;-77
2022/05/21 04:49:50;;;;;;;3.72;1.58;;;;;;;;;;7390105;19;20003;-77
2022/05/21 04:52:16;;;;;;;4.53;1.75;;;;;;;;;;7390554;19;20082;-78
2022/05/21 04:54:41;;;;;;;2.08;1.50;;;;;;;;;;7398968;19;20013;-79
2022/05/21 04:57:06;;;;;;;4.03;1.73;;;;;;;;;;7397012;19;20103;-79
2022/05/21 04:59:32;;;;;;;2.42;1.55;;;;;;;;;;7393278;19;20014;-78
2022/05/21 05:01:58;;;;;;;3.70;1.55;;;;;;;;;;7384248;19;20006;-79
2022/05/21 05:04:24;;;;;;;2.33;1.60;;;;;;;;;;7381474;19;20021;-79
2022/05/21 05:06:50;;;;;;;3.05;1.60;;;;;;;;;;7387353;19;20007;-80
2022/05/21 05:09:19;;;;;;;1.63;1.52;;;;;;;;;;7386876;19;21106;-80
2022/05/21 05:11:44;;;;;;;2.88;1.52;;;;;;;;;;7379457;19;20018;-80
2022/05/21 05:14:10;;;;;;;1.98;1.35;;;;;;;;;;7389657;19;20011;-79
2022/05/21 05:16:35;;;;;;;2.13;1.60;;;;;;;;;;7387827;19;20097;-79
2022/05/21 05:19:00;;;;;;;3.65;1.60;;;;;;;;;;7385506;19;19999;-78
2022/05/21 05:21:26;;;;;;;2.35;1.33;;;;;;;;;;7385946;19;20036;-78
2022/05/21 05:23:51;;;;;;;2.30;1.30;;;;;;;;;;7384685;19;20015;-78
2022/05/21 05:26:17;;;;;;;1.55;1.30;;;;;;;;;;7384362;19;20006;-78
2022/05/21 05:28:42;;;;;;;1.70;1.60;;;;;;;;;;7388802;19;20022;-79
2022/05/21 05:31:08;;;;;;;3.78;1.75;;;;;;;;;;7383415;19;20002;-78
2022/05/21 05:33:33;;;;;;;2.08;1.40;;;;;;;;;;7382439;19;20011;-79
2022/05/21 05:35:59;;;;;;;1.67;1.58;;;;;;;;;;7387203;19;20434;-78
2022/05/21 05:38:24;;;;;;;4.78;1.67;;;;;;;;;;7384994;19;20106;-80
2022/05/21 05:40:51;;;;;;;1.85;1.50;;;;;;;;;;7385115;19;20050;-78
2022/05/21 05:43:19;;;;;;;2.33;1.58;;;;;;;;;;7385196;19;20371;-78
2022/05/21 05:45:45;;;;;;;3.15;1.45;;;;;;;;;;7387360;19;20031;-78
2022/05/21 05:48:10;;;;;;;2.80;1.30;;;;;;;;;;7382661;19;20018;-77
2022/05/21 05:50:35;;;;;;;2.05;1.27;;;;;;;;;;7386971;19;20014;-78
2022/05/21 05:53:05;;;;;;;1.70;1.40;;;;;;;;;;7380018;19;20018;-78
2022/05/21 05:55:32;;;;;;;9.02;2.22;;;;;;;;;;7375568;19;20006;-77
2022/05/21 05:57:57;;;;;;;4.57;1.50;;;;;;;;;;7388117;19;20478;-77
2022/05/21 06:00:23;;;;;;;3.40;1.85;;;;;;;;;;7393057;19;20014;-78
2022/05/21 06:02:58;;;;;;;2.63;2.00;;;;;;;;;;7390915;19;20027;-78
2022/05/21 06:05:24;;;;;;;2.42;1.70;;;;;;;;;;7384727;19;19999;-77
2022/05/21 06:07:55;;;;;;;7.72;2.17;;;;;;;;;;7390367;19;20018;-77
2022/05/21 06:10:27;;;;;;;7.35;1.35;;;;;;;;;;7391048;19;20419;-77
2022/05/21 06:12:52;;;;;;;1.40;1.30;;;;;;;;;;7394044;19;20762;-77
2022/05/21 06:15:18;;;;;;;1.40;1.30;;;;;;;;;;7390263;19;20017;-77
2022/05/21 06:17:44;;;;;;;1.40;1.30;;;;;;;;;;7387970;19;20022;-77
2022/05/21 06:20:16;;;;;;;2.35;1.45;;;;;;;;;;7389105;19;20003;-77
2022/05/21 06:22:42;;;;;;;6.55;1.80;;;;;;;;;;7388477;19;20018;-78
2022/05/21 06:25:09;;;;;;;2.33;1.63;;;;;;;;;;7389296;19;20003;-77
2022/05/21 06:27:34;;;;;;;2.03;1.58;;;;;;;;;;7387786;19;20014;-77
2022/05/21 06:29:59;;;;;;;1.75;1.48;;;;;;;;;;7392891;19;20014;-77
2022/05/21 06:32:25;;;;;;;3.08;1.40;;;;;;;;;;7389319;19;20813;-79
2022/05/21 06:34:50;;;;;;;3.72;1.42;;;;;;;;;;7388602;19;20018;-78
2022/05/21 06:37:16;;;;;;;2.28;1.17;;;;;;;;;;7396695;19;20546;-79
2022/05/21 06:39:44;;;;;;;2.22;1.52;;;;;;;;;;7391173;19;20764;-79
2022/05/21 06:42:11;;;;;;;2.20;1.50;;;;;;;;;;7395147;19;20050;-79
2022/05/21 06:44:37;;;;;;;2.50;1.58;;;;;;;;;;7398222;19;20017;-79
2022/05/21 06:47:02;;;;;;;1.40;1.30;;;;;;;;;;7391853;19;20335;-78
2022/05/21 06:49:28;;;;;;;1.75;1.65;;;;;;;;;;7393938;19;20029;-78
2022/05/21 06:51:55;;;;;;;1.95;1.20;;;;;;;;;;7393578;19;20010;-78
2022/05/21 06:54:21;;;;;;;2.10;1.23;;;;;;;;;;7395785;19;20043;-78
2022/05/21 06:56:47;;;;;;;1.67;1.23;;;;;;;;;;7398195;19;20022;-77
2022/05/21 06:59:12;;;;;;;1.65;1.17;;;;;;;;;;7392346;19;20035;-78
2022/05/21 07:01:38;;;;;;;1.60;1.40;;;;;;;;;;7389314;19;20008;-78
2022/05/21 07:04:03;;;;;;;2.75;1.27;;;;;;;;;;7394690;19;20010;-77
2022/05/21 07:09:13;;;;;;;3.10;1.50;;;;;;;;;;7391418;19;20016;-77
2022/05/21 07:11:39;;;;;;;5.55;1.60;;;;;;;;;;7389118;19;20114;-78
2022/05/21 07:14:04;;;;;;;3.92;1.63;;;;;;;;;;7389237;19;20031;-77
2022/05/21 07:16:30;;;;;;;2.00;1.40;;;;;;;;;;7388216;19;20154;-77
2022/05/21 07:18:56;;;;;;;3.13;1.50;;;;;;;;;;7392447;19;20039;-78
2022/05/21 07:21:21;;;;;;;1.60;1.35;;;;;;;;;;7391275;19;20460;-77
2022/05/21 07:23:47;;;;;;;2.55;1.70;;;;;;;;;;7396896;19;20033;-78
2022/05/21 07:26:13;;;;;;;5.63;1.70;;;;;;;;;;7391490;19;20496;-77
2022/05/21 07:28:38;;;;;;;3.53;1.55;;;;;;;;;;7388823;19;20015;-77
2022/05/21 07:31:04;;;;;;;2.95;1.70;;;;;;;;;;7387821;19;20014;-78
2022/05/21 07:33:30;;;;;;;1.70;1.30;;;;;;;;;;7390668;19;20018;-77
2022/05/21 07:35:55;;;;;;;2.47;1.40;;;;;;;;;;7387650;19;20021;-77
2022/05/21 07:38:20;;;;;;;1.80;1.30;;;;;;;;;;7390270;19;20006;-77
2022/05/21 07:40:47;;;;;;;2.08;1.25;;;;;;;;;;7388790;19;20017;-78
2022/05/21 07:43:15;;;;;;;2.03;1.35;;;;;;;;;;7394107;19;20118;-77
2022/05/21 07:45:41;;;;;;;1.73;1.48;;;;;;;;;;7390638;19;20165;-78
2022/05/21 07:48:10;;;;;;;2.25;1.08;;;;;;;;;;7393308;19;20080;-78
2022/05/21 07:50:40;;;;;;;1.48;1.38;;;;;;;;;;7392292;19;20014;-78
2022/05/21 07:53:29;;;;;;;2.50;1.25;;;;;;;;;;7394232;19;20066;-78
2022/05/21 07:55:55;;;;;;;1.60;1.08;;;;;;;;;;7387084;19;20013;-78
2022/05/21 07:58:23;;;;;;;1.63;1.05;;;;;;;;;;7390857;19;20019;-78
2022/05/21 08:00:49;;;;;;;1.98;1.10;;;;;;;;;;7390275;19;20022;-78
2022/05/21 08:03:15;;;;;;;2.45;1.00;;;;;;;;;;7396624;19;19998;-78
2022/05/21 08:05:43;;;;;;;1.48;1.20;;;;;;;;;;7393979;19;20018;-78
2022/05/21 08:08:12;;;;;;;1.45;0.88;;;;;;;;;;7395142;19;20006;-80
2022/05/21 08:10:40;;;;;;;1.90;1.00;;;;;;;;;;7394450;19;20031;-78
2022/05/21 08:13:06;;;;;;;1.73;1.10;;;;;;;;;;7381181;19;20022;-77
2022/05/21 08:15:32;;;;;;;3.85;0.95;;;;;;;;;;7384260;19;20394;-75
2022/05/21 08:17:59;;;;;;;3.28;1.02;;;;;;;;;;7385395;19;20482;-77
2022/05/21 08:20:24;;;;;;;2.63;1.15;;;;;;;;;;7381359;19;20010;-77
2022/05/21 08:28:18;;;;;;;3.15;1.02;;;;;;;;;;7385325;19;20023;-76
2022/05/21 08:30:45;;;;;;;1.08;0.95;;;;;;;;;;7385507;19;20014;-77
2022/05/21 08:33:12;;;;;;;0.88;0.82;;;;;;;;;;7380570;19;20028;-78
2022/05/21 08:35:39;;;;;;;1.10;1.00;;;;;;;;;;7383222;19;20458;-77
2022/05/21 08:38:06;;;;;;;2.67;0.90;;;;;;;;;;7380752;19;20122;-77
2022/05/21 08:40:41;;;;;;;1.52;0.93;;;;;;;;;;7385350;19;20014;-77
2022/05/21 08:43:18;;;;;;;2.83;0.85;;;;;;;;;;7381336;19;20903;-77
2022/05/21 08:46:02;;;;;;;1.30;0.90;;;;;;;;;;7384318;19;20022;-77
2022/05/21 08:48:31;;;;;;;2.10;0.85;;;;;;;;;;7380495;19;20117;-76
2022/05/21 08:50:56;;;;;;;0.85;0.70;;;;;;;;;;7379326;19;20015;-77
2022/05/21 08:53:25;;;;;;;0.98;0.88;;;;;;;;;;7384244;19;20021;-77
2022/05/21 08:55:54;;;;;;;0.90;0.85;;;;;;;;;;7385241;19;20520;-77
2022/05/21 08:58:41;;;;;;;2.05;0.77;;;;;;;;;;7385706;19;20014;-77
2022/05/21 09:01:08;;;;;;;1.05;0.93;;;;;;;;;;7379427;19;20047;-77
2022/05/21 09:03:34;;;;;;;4.32;0.80;;;;;;;;;;7382036;19;20020;-77
2022/05/21 09:06:17;;;;;;;1.17;1.00;;;;;;;;;;7384323;19;20014;-78
2022/05/21 09:08:55;;;;;;;1.35;0.90;;;;;;;;;;7386085;19;20022;-78
2022/05/21 09:11:34;;;;;;;2.78;0.75;;;;;;;;;;7388056;19;20014;-78
2022/05/21 09:14:13;;;;;;;1.60;0.60;;;;;;;;;;7382207;19;20002;-78
2022/05/21 09:16:55;;;;;;;0.85;0.70;;;;;;;;;;7379795;19;20006;-76
2022/05/21 09:19:45;;;;;;;0.75;0.60;;;;;;;;;;7381455;19;20779;-76
2022/05/21 09:22:13;;;;;;;0.50;0.50;;;;;;;;;;7380534;19;20011;-75
2022/05/21 09:24:49;;;;;;;0.68;0.60;;;;;;;;;;7383610;19;20006;-77
2022/05/21 09:27:31;;;;;;;2.25;0.70;;;;;;;;;;7386037;19;20019;-75
2022/05/21 09:30:20;;;;;;;2.00;0.80;;;;;;;;;;7382949;19;21607;-76
2022/05/21 09:32:52;;;;;;;0.82;0.68;;;;;;;;;;7385065;19;20077;-77
2022/05/21 09:35:26;;;;;;;0.82;0.82;;;;;;;;;;7389922;19;20053;-77
2022/05/21 09:37:53;;;;;;;4.00;0.80;;;;;;;;;;7389552;19;20010;-77
2022/05/21 09:40:34;;;;;;;0.90;0.88;;;;;;;;;;7388819;19;20011;-77
2022/05/21 09:46:26;;;;;;;1.60;0.70;;;;;;;;;;7393454;19;20027;-77
2022/05/21 09:48:53;;;;;;;0.85;0.50;;;;;;;;;;7393929;19;20435;-77
2022/05/21 09:51:31;;;;;;;0.52;0.45;;;;;;;;;;7390763;19;20714;-77
2022/05/21 09:53:58;;;;;;;0.50;0.45;;;;;;;;;;7393658;19;20024;-77
2022/05/21 09:56:27;;;;;;;2.40;0.65;;;;;;;;;;7392844;19;20007;-77
2022/05/21 09:59:19;;;;;;;1.95;0.50;;;;;;;;;;7393859;19;20011;-76
2022/05/21 10:01:48;;;;;;;0.30;0.30;;;;;;;;;;7387912;19;20021;-79
2022/05/21 10:04:19;;;;;;;2.75;0.88;;;;;;;;;;7392821;19;19998;-78
2022/05/21 10:13:00;;;;;;;1.42;0.65;;;;;;;;;;7394877;19;20018;-78
2022/05/21 10:15:29;;;;;;;0.50;0.50;;;;;;;;;;7394370;19;20019;-77
2022/05/21 10:18:12;;;;;;;5.20;0.65;;;;;;;;;;7392687;19;20173;-78
2022/05/21 10:20:43;;;;;;;2.45;0.60;;;;;;;;;;7392429;19;20014;-77
2022/05/21 10:23:31;;;;;;;0.47;0.35;;;;;;;;;;7391371;19;20006;-78
2022/05/21 10:26:14;;;;;;;0.40;0.40;;;;;;;;;;7393975;19;20014;-79
2022/05/21 10:29:28;;;;;;;1.35;0.45;;;;;;;;;;7393275;19;20014;-77
2022/05/21 10:32:30;;;;;;;3.20;0.50;;;;;;;;;;7389056;19;20070;-78
2022/05/21 10:35:33;;;;;;;1.83;0.73;;;;;;;;;;7394019;19;20010;-78
2022/05/21 10:38:09;;;;;;;0.60;0.57;;;;;;;;;;7392764;19;20029;-77
2022/05/21 10:40:43;;;;;;;2.05;0.80;;;;;;;;;;7390395;19;20464;-77
2022/05/21 10:43:49;;;;;;;0.45;0.45;;;;;;;;;;7391783;19;20048;-77
2022/05/21 10:46:56;;;;;;;0.60;0.30;;;;;;;;;;7392557;19;20033;-77
2022/05/21 10:49:34;;;;;;;1.30;0.40;;;;;;;;;;7392527;19;20029;-77
2022/05/21 10:52:19;;;;;;;0.25;0.25;;;;;;;;;;7388911;19;20010;-78
2022/05/21 10:54:55;;;;;;;0.30;0.30;;;;;;;;;;7392999;19;20014;-78
2022/05/21 10:57:49;;;;;;;2.05;0.47;;;;;;;;;;7390618;19;20005;-77
2022/05/21 11:00:20;;;;;;;1.08;0.40;;;;;;;;;;7390359;19;20122;-76
2022/05/21 11:03:08;;;;;;;0.57;0.32;;;;;;;;;;7388867;19;20049;-76
2022/05/21 11:05:49;;;;;;;1.33;0.40;;;;;;;;;;7388773;19;20022;-78
2022/05/21 11:08:41;;;;;;;0.98;0.50;;;;;;;;;;7392356;19;20466;-77
2022/05/21 11:11:13;;;;;;;0.60;0.43;;;;;;;;;;7386604;19;20035;-78
2022/05/21 11:13:57;;;;;;;2.25;0.50;;;;;;;;;;7391171;19;20492;-78
2022/05/21 11:16:44;;;;;;;1.85;0.50;;;;;;;;;;7387479;19;20086;-78
2022/05/21 11:19:21;;;;;;;0.60;0.50;;;;;;;;;;7390481;19;20014;-78
2022/05/21 11:21:51;;;;;;;1.83;0.50;;;;;;;;;;7387822;19;20027;-77
2022/05/21 11:24:28;;;;;;;0.93;0.50;;;;;;;;;;7391656;19;20006;-78
2022/05/21 11:27:14;;;;;;;0.63;0.60;;;;;;;;;;7390436;19;20013;-77
2022/05/21 11:29:54;;;;;;;;;;;;;;;;;;7387983;19;20035;-77
2022/05/21 11:38:26;;;;;;;0.93;0.40;;;;;;;;;;7393208;19;20345;-76
2022/05/21 11:46:56;;;;;;;0.40;0.40;;;;;;;;;;7388811;19;20591;-77
2022/05/21 11:49:27;;;;;;;1.53;0.40;;;;;;;;;;7390620;19;20084;-76
2022/05/21 11:51:54;;;;;;;0.95;0.60;;;;;;;;;;7388074;19;20283;-76
2022/05/21 11:54:47;;;;;;;1.10;0.45;;;;;;;;;;7391631;19;20078;-76
2022/05/21 11:57:35;;;;;;;0.73;0.52;;;;;;;;;;7390046;19;20086;-77
2022/05/21 12:00:25;;;;;;;0.60;0.50;;;;;;;;;;7389668;19;20441;-77
2022/05/21 12:02:53;;;;;;;0.70;0.47;;;;;;;;;;7382957;19;21044;-76
2022/05/21 12:05:34;;;;;;;0.65;0.50;;;;;;;;;;7388447;19;20030;-76
2022/05/21 12:08:22;;;;;;;1.25;0.40;;;;;;;;;;7389643;19;20038;-76
2022/05/21 12:11:02;;;;;;;0.40;0.40;;;;;;;;;;7387498;19;20018;-76
2022/05/21 12:13:33;;;;;;;0.30;0.30;;;;;;;;;;7389272;19;20477;-76
2022/05/21 12:16:00;;;;;;;0.95;0.40;;;;;;;;;;7387354;19;20025;-77
2022/05/21 12:19:02;;;;;;;1.42;0.50;;;;;;;;;;7387189;19;20006;-76
2022/05/21 12:21:37;;;;;;;0.70;0.40;;;;;;;;;;7386327;19;20488;-76
2022/05/21 12:24:09;;;;;;;0.88;0.40;;;;;;;;;;7376752;19;20010;-77
2022/05/21 12:26:40;;;;;;;0.65;0.20;;;;;;;;;;7385420;19;20092;-76
2022/05/21 12:29:19;;;;;;;0.30;0.30;;;;;;;;;;7386168;19;20010;-77
2022/05/21 12:31:45;;;;;;;1.10;0.35;;;;;;;;;;7382321;19;20007;-71
2022/05/21 12:34:30;;;;;;;2.25;0.40;;;;;;;;;;7384926;19;20142;-74
2022/05/21 12:37:35;;;;;;;0.20;0.20;;;;;;;;;;7387824;19;20018;-72
2022/05/21 12:40:01;;;;;;;0.55;0.30;;;;;;;;;;7387515;19;20022;-72
2022/05/21 12:42:51;;;;;;;0.30;0.20;;;;;;;;;;7381850;19;20017;-73
2022/05/21 12:45:33;;;;;;;1.63;0.40;;;;;;;;;;7387455;19;20037;-73
2022/05/21 12:48:10;;;;;;;9.63;0.52;;;;;;;;;;7382083;19;20005;-74
2022/05/21 12:50:45;;;;;;;0.40;0.40;;;;;;;;;;7385019;19;20006;-74
2022/05/21 12:53:11;;;;;;;0.90;0.30;;;;;;;;;;7384141;19;20420;-73
2022/05/21 12:55:36;;;;;;;0.40;0.30;;;;;;;;;;7386541;19;20002;-73
2022/05/21 12:58:08;;;;;;;0.50;0.50;;;;;;;;;;7381715;19;20010;-74
2022/05/21 13:00:34;;;;;;;1.00;0.30;;;;;;;;;;7386320;19;20022;-73
2022/05/21 13:03:06;;;;;;;1.55;0.47;;;;;;;;;;7382433;19;20027;-75
2022/05/21 13:05:37;;;;;;;1.17;0.52;;;;;;;;;;7386784;19;20026;-73
2022/05/21 13:08:05;;;;;;;0.75;0.30;;;;;;;;;;7399755;19;20014;-74
2022/05/21 13:10:34;;;;;;;0.95;0.38;;;;;;;;;;7395752;19;20501;-73
2022/05/21 13:13:10;;;;;;;1.42;0.28;;;;;;;;;;7397184;19;20310;-78
2022/05/21 13:15:45;;;;;;;0.82;0.20;;;;;;;;;;7402181;19;20029;-75
2022/05/21 13:18:23;;;;;;;;;;;;;;;;;;7397016;19;20018;-76
2022/05/21 13:21:19;;;;;;;0.60;0.30;;;;;;;;;;7397537;19;19975;-76
2022/05/21 13:24:21;;;;;;;0.30;0.30;;;;;;;;;;7396303;19;20002;-75
2022/05/21 13:27:03;;;;;;;0.43;0.30;;;;;;;;;;7393085;19;20007;-75
2022/05/21 13:29:29;;;;;;;1.75;0.50;;;;;;;;;;7398064;19;20017;-75
2022/05/21 13:31:56;;;;;;;0.40;0.40;;;;;;;;;;7383193;19;22334;-76
2022/05/21 13:34:25;;;;;;;3.13;0.40;;;;;;;;;;7399016;19;20038;-76
2022/05/21 13:36:53;;;;;;;3.50;0.35;;;;;;;;;;7399541;19;20034;-76
2022/05/21 13:39:24;;;;;;;1.02;0.52;;;;;;;;;;7398945;19;20079;-76
2022/05/21 13:41:50;;;;;;;3.90;0.45;;;;;;;;;;7395637;19;20014;-76
2022/05/21 13:44:23;;;;;;;0.20;0.20;;;;;;;;;;7397577;19;20082;-76
2022/05/21 13:46:54;;;;;;;1.20;0.30;;;;;;;;;;7394574;19;20009;-76
2022/05/21 13:49:28;;;;;;;0.30;0.30;;;;;;;;;;7389438;19;20010;-75
2022/05/21 13:51:53;;;;;;;2.38;0.40;;;;;;;;;;7391712;19;20003;-76
2022/05/21 13:54:20;;;;;;;0.30;0.20;;;;;;;;;;7393155;19;20018;-77
2022/05/21 13:56:45;;;;;;;0.50;0.35;;;;;;;;;;7395431;19;20033;-76
2022/05/21 13:59:21;;;;;;;0.65;0.30;;;;;;;;;;7395082;19;20822;-75
2022/05/21 14:01:47;;;;;;;0.28;0.28;;;;;;;;;;7392520;19;20014;-75
2022/05/21 14:04:28;;;;;;;0.20;0.20;;;;;;;;;;7391641;19;20326;-76
2022/05/21 14:06:55;;;;;;;0.90;0.40;;;;;;;;;;7393787;19;20078;-76
2022/05/21 14:09:23;;;;;;;0.17;0.17;;;;;;;;;;7393783;19;20014;-75
2022/05/21 14:11:55;;;;;;;0.30;0.30;;;;;;;;;;7392776;19;20018;-76
2022/05/21 14:14:24;;;;;;;0.30;0.30;;;;;;;;;;7395801;19;20014;-74
2022/05/21 14:16:52;;;;;;;0.63;0.40;;;;;;;;;;7393651;19;20006;-75
2022/05/21 14:19:17;;;;;;;2.53;0.45;;;;;;;;;;7386297;19;20047;-74
2022/05/21 14:22:11;;;;;;;0.20;0.20;;;;;;;;;;7381544;19;20002;-74
2022/05/21 14:24:40;;;;;;;1.23;0.30;;;;;;;;;;7392420;19;20011;-76
2022/05/21 14:27:15;;;;;;;0.30;0.30;;;;;;;;;;7392949;19;20003;-77
2022/05/21 14:29:55;;;;;;;0.55;0.30;;;;;;;;;;7401346;19;20035;-77
2022/05/21 14:32:35;;;;;;;0.90;0.20;;;;;;;;;;7393159;19;20014;-76
2022/05/21 14:35:16;;;;;;;0.47;0.30;;;;;;;;;;7397452;19;20007;-75
2022/05/21 14:37:44;;;;;;;0.32;0.32;;;;;;;;;;7397175;19;20106;-77
2022/05/21 14:40:11;;;;;;;0.32;0.28;;;;;;;;;;7396278;19;20010;-77
2022/05/21 14:42:37;;;;;;;3.03;0.40;;;;;;;;;;7391860;19;20014;-77
2022/05/21 14:45:13;;;;;;;1.05;0.40;;;;;;;;;;7398188;19;20015;-75
2022/05/21 14:47:54;;;;;;;1.10;0.43;;;;;;;;;;7389265;19;20003;-77
2022/05/21 14:53:26;;;;;;;0.38;0.38;;;;;;;;;;7392498;19;20350;-77
2022/05/21 14:55:52;;;;;;;0.93;0.60;;;;;;;;;;7391497;19;20090;-77
2022/05/21 14:58:18;;;;;;;0.73;0.45;;;;;;;;;;7393561;19;20034;-76
2022/05/21 15:00:45;;;;;;;0.43;0.30;;;;;;;;;;7386325;19;20016;-78
2022/05/21 15:03:11;;;;;;;0.93;0.40;;;;;;;;;;7390323;19;20021;-77
2022/05/21 15:05:39;;;;;;;0.85;0.45;;;;;;;;;;7387972;19;19999;-77
2022/05/21 15:08:05;;;;;;;1.23;0.60;;;;;;;;;;7390168;19;20002;-77
2022/05/21 15:10:31;;;;;;;0.95;0.80;;;;;;;;;;7391098;19;20010;-77
2022/05/21 15:12:56;;;;;;;1.25;0.38;;;;;;;;;;7393418;19;20121;-77
2022/05/21 15:15:22;;;;;;;0.75;0.45;;;;;;;;;;7394009;19;20022;-76
2022/05/21 15:17:48;;;;;;;3.33;1.13;;;;;;;;;;7391477;19;20012;-77
2022/05/21 15:20:15;;;;;;;0.63;0.50;;;;;;;;;;7394008;19;20362;-76
2022/05/21 15:22:43;;;;;;;1.33;0.50;;;;;;;;;;7388682;19;20070;-76
2022/05/21 15:25:11;;;;;;;0.55;0.40;;;;;;;;;;7386896;19;20027;-76
2022/05/21 15:27:38;;;;;;;0.98;0.40;;;;;;;;;;7390724;19;20006;-76
2022/05/21 15:30:06;;;;;;;1.67;0.40;;;;;;;;;;7386266;19;20478;-76
2022/05/21 15:32:31;;;;;;;1.55;0.32;;;;;;;;;;7382392;19;20011;-75
2022/05/21 15:34:57;;;;;;;1.80;0.55;;;;;;;;;;7390769;19;20014;-77
2022/05/21 15:37:22;;;;;;;1.08;0.50;;;;;;;;;;7388596;19;20070;-77
2022/05/21 15:39:48;;;;;;;1.63;0.60;;;;;;;;;;7388817;19;20014;-73
2022/05/21 15:42:14;;;;;;;1.45;0.38;;;;;;;;;;7386243;19;20006;-71